createdAt,value
2022-12-06T00:01:20.854Z,7.30
2022-12-06T00:03:52.466Z,7.20
2022-12-06T00:06:22.101Z,7.30
2022-12-06T00:08:50.059Z,7.30
2022-12-06T00:11:23.237Z,7.30
2022-12-06T00:13:55.286Z,7.30
2022-12-06T00:16:24.034Z,7.30
2022-12-06T00:18:51.945Z,7.20
2022-12-06T00:21:23.478Z,7.20
2022-12-06T00:23:58.234Z,7.20
2022-12-06T00:26:25.710Z,7.20
2022-12-06T00:28:54.626Z,7.20
2022-12-06T00:31:23.697Z,7.20
2022-12-06T00:33:51.550Z,7.30
2022-12-06T00:36:21.318Z,7.30
2022-12-06T00:38:49.234Z,7.20
2022-12-06T00:41:18.861Z,7.20
2022-12-06T00:43:46.725Z,7.20
2022-12-06T00:46:20.784Z,7.30
2022-12-06T00:48:48.640Z,7.30
2022-12-06T00:51:17.637Z,7.30
2022-12-06T00:53:45.413Z,7.30
2022-12-06T00:56:13.131Z,7.30
2022-12-06T00:58:40.136Z,7.30
2022-12-06T01:01:12.847Z,7.30
2022-12-06T01:03:40.856Z,7.30
2022-12-06T01:06:10.808Z,7.40
2022-12-06T01:08:38.853Z,7.40
2022-12-06T01:11:07.157Z,7.40
2022-12-06T01:13:34.584Z,7.30
2022-12-06T01:16:10.786Z,7.30
2022-12-06T01:18:37.963Z,7.40
2022-12-06T01:21:06.404Z,7.30
2022-12-06T01:23:33.758Z,7.30
2022-12-06T01:26:00.934Z,7.30
2022-12-06T01:28:27.817Z,7.30
2022-12-06T01:30:54.958Z,7.30
2022-12-06T01:33:22.153Z,7.30
2022-12-06T01:35:49.084Z,7.30
2022-12-06T01:38:16.181Z,7.40
2022-12-06T01:40:46.732Z,7.40
2022-12-06T01:43:38.143Z,7.50
2022-12-06T01:46:19.963Z,7.50
2022-12-06T01:48:53.218Z,7.50
2022-12-06T01:51:21.338Z,7.40
2022-12-06T01:53:50.806Z,7.50
2022-12-06T01:56:18.621Z,7.50
2022-12-06T01:58:48.520Z,7.60
2022-12-06T02:01:15.901Z,7.50
2022-12-06T02:03:44.403Z,7.50
2022-12-06T02:06:11.483Z,7.50
2022-12-06T02:08:39.025Z,7.40
2022-12-06T02:11:06.421Z,7.50
2022-12-06T02:13:36.064Z,7.40
2022-12-06T02:16:20.441Z,7.40
2022-12-06T02:18:59.266Z,7.40
2022-12-06T02:21:44.601Z,7.40
2022-12-06T02:24:30.434Z,7.40
2022-12-06T02:27:29.278Z,7.40
2022-12-06T02:30:22.134Z,7.50
2022-12-06T02:32:59.487Z,7.50
2022-12-06T02:35:35.055Z,7.50
2022-12-06T02:38:23.957Z,7.50
2022-12-06T02:41:06.306Z,7.50
2022-12-06T02:43:40.565Z,7.50
2022-12-06T02:46:09.061Z,7.40
2022-12-06T02:48:37.008Z,7.40
2022-12-06T02:51:08.241Z,7.40
2022-12-06T02:53:39.092Z,7.40
2022-12-06T02:56:07.474Z,7.40
2022-12-06T02:58:41.554Z,7.40
2022-12-06T03:01:16.142Z,7.40
2022-12-06T03:04:13.179Z,7.30
2022-12-06T03:06:49.446Z,7.40
2022-12-06T03:09:25.565Z,7.30
2022-12-06T03:12:03.615Z,7.30
2022-12-06T03:14:40.392Z,7.30
2022-12-06T03:17:16.526Z,7.40
2022-12-06T03:19:49.253Z,7.40
2022-12-06T03:22:25.310Z,7.30
2022-12-06T03:24:53.154Z,7.20
2022-12-06T03:27:21.290Z,7.20
2022-12-06T03:29:53.640Z,7.10
2022-12-06T03:32:25.201Z,7.00
2022-12-06T03:34:56.507Z,7.00
2022-12-06T03:37:27.206Z,6.90
2022-12-06T03:40:08.832Z,6.80
2022-12-06T03:42:36.228Z,6.80
2022-12-06T03:45:04.635Z,6.70
2022-12-06T03:47:42.344Z,6.60
2022-12-06T03:50:15.542Z,6.60
2022-12-06T03:52:42.547Z,6.50
2022-12-06T03:55:09.635Z,6.40
2022-12-06T03:57:39.423Z,6.40
2022-12-06T04:00:08.013Z,6.50
2022-12-06T04:02:34.914Z,6.50
2022-12-06T04:05:01.801Z,6.60
2022-12-06T04:07:28.942Z,6.60
2022-12-06T04:10:04.537Z,6.60
2022-12-06T04:13:04.523Z,6.60
2022-12-06T04:15:38.351Z,6.70
2022-12-06T04:18:13.997Z,6.80
2022-12-06T04:21:27.340Z,6.80
2022-12-06T04:23:54.390Z,6.80
2022-12-06T04:26:23.390Z,6.70
2022-12-06T04:29:10.734Z,6.70
2022-12-06T04:31:57.682Z,6.70
2022-12-06T04:34:43.711Z,6.70
2022-12-06T04:37:29.881Z,6.60
2022-12-06T04:39:57.285Z,6.50
2022-12-06T04:42:43.106Z,6.50
2022-12-06T04:45:10.284Z,6.40
2022-12-06T04:47:37.158Z,6.30
2022-12-06T04:50:04.159Z,6.10
2022-12-06T04:52:35.489Z,6.00
2022-12-06T04:55:04.507Z,6.00
2022-12-06T04:57:31.368Z,6.00
2022-12-06T04:59:58.720Z,6.00
2022-12-06T05:02:25.770Z,5.90
2022-12-06T05:04:52.559Z,5.90
2022-12-06T05:07:19.345Z,6.00
2022-12-06T05:09:46.351Z,6.00
2022-12-06T05:12:13.136Z,6.00
2022-12-06T05:14:40.005Z,6.00
2022-12-06T05:17:06.972Z,5.90
2022-12-06T05:19:33.963Z,6.00
2022-12-06T05:22:01.302Z,6.00
2022-12-06T05:24:28.257Z,5.90
2022-12-06T05:26:55.428Z,6.00
2022-12-06T05:29:22.409Z,6.00
2022-12-06T05:31:49.550Z,6.00
2022-12-06T05:34:16.541Z,5.90
2022-12-06T05:36:46.098Z,5.90
2022-12-06T05:39:13.293Z,5.80
2022-12-06T05:41:55.584Z,5.80
2022-12-06T05:44:22.482Z,5.70
2022-12-06T05:46:49.755Z,5.70
2022-12-06T05:49:16.786Z,5.70
2022-12-06T05:51:44.487Z,5.70
2022-12-06T05:54:11.355Z,5.70
2022-12-06T05:56:39.970Z,5.60
2022-12-06T05:59:07.268Z,5.50
2022-12-06T06:01:34.388Z,5.50
2022-12-06T06:04:01.795Z,5.50
2022-12-06T06:06:28.886Z,5.40
2022-12-06T06:08:55.777Z,5.50
2022-12-06T06:11:23.202Z,5.50
2022-12-06T06:13:50.407Z,5.50
2022-12-06T06:16:17.289Z,5.40
2022-12-06T06:18:44.570Z,5.40
2022-12-06T06:21:11.496Z,5.30
2022-12-06T06:23:38.896Z,5.30
2022-12-06T06:26:11.534Z,5.30
2022-12-06T06:28:39.168Z,5.40
2022-12-06T06:31:06.636Z,5.30
2022-12-06T06:33:33.761Z,5.20
2022-12-06T06:36:00.637Z,5.10
2022-12-06T06:38:27.764Z,5.10
2022-12-06T06:40:54.637Z,5.20
2022-12-06T06:43:21.635Z,5.20
2022-12-06T06:45:56.970Z,5.20
2022-12-06T06:48:25.184Z,5.00
2022-12-06T06:50:56.953Z,5.10
2022-12-06T06:53:25.245Z,5.10
2022-12-06T06:55:54.056Z,5.10
2022-12-06T06:58:21.575Z,5.10
2022-12-06T07:00:54.052Z,5.30
2022-12-06T07:03:21.792Z,5.50
2022-12-06T07:06:01.410Z,5.50
2022-12-06T07:08:29.598Z,5.40
2022-12-06T07:10:56.748Z,5.10
2022-12-06T07:13:26.226Z,5.00
2022-12-06T07:15:53.880Z,4.90
2022-12-06T07:18:21.970Z,4.80
2022-12-06T07:20:49.351Z,4.80
2022-12-06T07:23:16.520Z,4.70
2022-12-06T07:25:43.422Z,4.60
2022-12-06T07:28:10.388Z,4.50
2022-12-06T07:30:37.242Z,4.70
2022-12-06T07:33:04.962Z,4.50
2022-12-06T07:38:19.635Z,4.40
2022-12-06T07:43:52.314Z,4.20
2022-12-06T07:46:19.139Z,4.20
2022-12-06T07:48:46.087Z,4.20
2022-12-06T07:51:12.846Z,4.20
2022-12-06T07:53:41.263Z,4.30
2022-12-06T07:56:08.893Z,4.40
2022-12-06T07:58:35.811Z,4.40
2022-12-06T08:01:04.163Z,4.50
2022-12-06T08:03:31.155Z,4.50
2022-12-06T08:05:58.128Z,4.60
2022-12-06T08:08:28.915Z,4.70
2022-12-06T08:11:00.293Z,4.70
2022-12-06T08:13:28.816Z,4.80
2022-12-06T08:15:56.367Z,4.90
2022-12-06T08:18:23.764Z,5.10
2022-12-06T08:20:51.089Z,5.10
2022-12-06T08:23:18.017Z,5.30
2022-12-06T08:25:44.939Z,5.40
2022-12-06T08:28:11.998Z,5.50
2022-12-06T08:30:42.322Z,5.60
2022-12-06T08:33:09.505Z,5.70
2022-12-06T08:35:39.545Z,5.90
2022-12-06T08:38:06.481Z,6.00
2022-12-06T08:40:34.338Z,6.10
2022-12-06T08:43:01.529Z,6.30
2022-12-06T08:45:28.615Z,6.50
2022-12-06T08:47:55.948Z,6.50
2022-12-06T08:50:22.768Z,6.60
2022-12-06T08:52:49.688Z,6.60
2022-12-06T08:55:16.788Z,6.70
2022-12-06T08:57:43.608Z,6.80
2022-12-06T09:00:12.332Z,6.90
2022-12-06T09:02:40.555Z,6.90
2022-12-06T09:05:09.030Z,6.90
2022-12-06T09:07:35.993Z,7.00
2022-12-06T09:10:03.405Z,7.00
2022-12-06T09:12:30.551Z,7.10
2022-12-06T09:14:57.785Z,7.10
2022-12-06T09:17:24.724Z,7.00
2022-12-06T09:19:51.927Z,7.10
2022-12-06T09:22:18.731Z,7.10
2022-12-06T09:24:45.574Z,7.10
2022-12-06T09:27:12.478Z,7.10
2022-12-06T09:29:40.903Z,7.10
2022-12-06T09:32:08.076Z,7.20
2022-12-06T09:34:35.347Z,7.20
2022-12-06T09:37:07.225Z,7.30
2022-12-06T09:39:48.836Z,7.40
2022-12-06T09:42:38.705Z,7.40
2022-12-06T09:45:11.382Z,7.50
2022-12-06T09:48:00.617Z,7.60
2022-12-06T09:50:45.884Z,7.60
2022-12-06T09:53:31.591Z,7.70
2022-12-06T09:56:13.973Z,7.70
2022-12-06T09:59:25.235Z,7.70
2022-12-06T10:02:00.540Z,7.80
2022-12-06T10:04:38.515Z,7.90
2022-12-06T10:07:59.138Z,7.90
2022-12-06T10:10:44.442Z,7.90
2022-12-06T10:13:34.918Z,8.10
2022-12-06T10:16:03.861Z,8.20
2022-12-06T10:18:45.259Z,8.30
2022-12-06T10:21:45.725Z,8.40
2022-12-06T10:24:43.422Z,8.50
2022-12-06T10:27:26.498Z,8.50
2022-12-06T10:30:04.311Z,8.50
2022-12-06T10:33:05.467Z,8.40
2022-12-06T10:35:38.501Z,8.40
2022-12-06T10:38:23.554Z,8.50
2022-12-06T10:41:05.102Z,8.60
2022-12-06T10:43:50.654Z,8.70
2022-12-06T10:46:45.354Z,8.70
2022-12-06T10:49:22.526Z,8.80
2022-12-06T10:52:00.126Z,8.80
2022-12-06T10:54:26.962Z,8.80
2022-12-06T10:56:57.067Z,8.90
2022-12-06T11:00:03.775Z,9.00
2022-12-06T11:02:35.490Z,9.20
2022-12-06T11:05:07.173Z,9.30
2022-12-06T11:07:47.098Z,9.70
2022-12-06T11:10:28.419Z,10.40
2022-12-06T11:13:03.051Z,11.00
2022-12-06T11:15:44.158Z,11.50
2022-12-06T11:18:14.477Z,11.90
2022-12-06T11:21:33.542Z,12.60
2022-12-06T11:24:27.916Z,13.10
2022-12-06T11:27:35.893Z,13.60
2022-12-06T11:30:13.680Z,13.90
2022-12-06T11:32:45.455Z,14.30
2022-12-06T11:35:20.046Z,14.60
2022-12-06T11:37:47.893Z,14.80
2022-12-06T11:40:34.364Z,14.80
2022-12-06T11:43:05.249Z,15.10
2022-12-06T11:45:40.227Z,15.40
2022-12-06T11:48:22.762Z,15.30
2022-12-06T11:50:51.516Z,14.90
2022-12-06T11:53:47.935Z,15.10
2022-12-06T11:56:28.422Z,15.00
2022-12-06T11:59:00.984Z,15.20
2022-12-06T12:02:01.382Z,15.40
2022-12-06T12:04:41.372Z,15.30
2022-12-06T12:07:18.066Z,15.60
2022-12-06T12:09:47.316Z,15.70
2022-12-06T12:12:46.324Z,15.80
2022-12-06T12:15:17.824Z,15.00
2022-12-06T12:17:51.896Z,14.70
2022-12-06T12:20:26.477Z,14.90
2022-12-06T12:23:28.023Z,15.10
2022-12-06T12:26:25.008Z,15.20
2022-12-06T12:29:16.674Z,15.50
2022-12-06T12:31:56.806Z,15.70
2022-12-06T12:34:29.442Z,15.60
2022-12-06T12:37:02.663Z,15.70
2022-12-06T12:39:40.681Z,16.00
2022-12-06T12:42:29.840Z,15.90
2022-12-06T12:45:00.327Z,15.40
2022-12-06T12:47:27.827Z,15.20
2022-12-06T12:50:13.426Z,15.50
2022-12-06T12:52:42.201Z,15.40
2022-12-06T12:55:27.662Z,15.40
2022-12-06T12:58:00.594Z,15.60
2022-12-06T13:00:41.687Z,15.60
2022-12-06T13:03:50.691Z,15.50
2022-12-06T13:06:15.809Z,15.50
2022-12-06T13:08:42.902Z,15.10
2022-12-06T13:11:10.249Z,15.20
2022-12-06T13:13:44.879Z,15.30
2022-12-06T13:16:15.290Z,15.40
2022-12-06T13:18:46.936Z,14.80
2022-12-06T13:21:36.481Z,14.30
2022-12-06T13:24:16.610Z,13.80
2022-12-06T13:26:48.895Z,13.80
2022-12-06T13:29:42.498Z,13.80
2022-12-06T13:32:34.845Z,14.00
2022-12-06T13:35:08.171Z,14.30
2022-12-06T13:37:45.566Z,14.80
2022-12-06T13:40:34.680Z,15.00
2022-12-06T13:43:03.963Z,15.10
2022-12-06T13:45:41.300Z,15.20
2022-12-06T13:48:26.752Z,15.00
2022-12-06T13:51:00.094Z,15.20
2022-12-06T13:53:29.455Z,15.30
2022-12-06T13:56:00.858Z,15.20
2022-12-06T13:58:27.591Z,15.20
2022-12-06T14:00:56.445Z,15.10
2022-12-06T14:03:25.990Z,14.90
2022-12-06T14:06:27.752Z,14.80
2022-12-06T14:08:59.546Z,14.90
2022-12-06T14:11:36.587Z,14.90
2022-12-06T14:14:18.479Z,15.00
2022-12-06T14:16:49.939Z,15.10
2022-12-06T14:19:42.952Z,15.10
2022-12-06T14:22:30.251Z,15.10
2022-12-06T14:25:18.025Z,15.10
2022-12-06T14:27:48.301Z,15.30
2022-12-06T14:30:26.388Z,15.20
2022-12-06T14:32:56.775Z,15.20
2022-12-06T14:35:36.172Z,14.70
2022-12-06T14:38:23.048Z,14.40
2022-12-06T14:41:09.910Z,14.20
2022-12-06T14:43:37.930Z,14.20
2022-12-06T14:46:12.645Z,14.10
2022-12-06T14:48:58.566Z,13.90
2022-12-06T14:51:41.071Z,13.50
2022-12-06T14:54:31.329Z,13.20
2022-12-06T14:56:58.488Z,12.80
2022-12-06T15:00:11.018Z,12.80
2022-12-06T15:02:24.670Z,12.50
2022-12-06T15:04:52.527Z,12.20
2022-12-06T15:07:38.288Z,12.00
2022-12-06T15:10:32.646Z,11.70
2022-12-06T15:13:15.831Z,11.60
2022-12-06T15:15:46.083Z,11.40
2022-12-06T15:18:22.216Z,11.20
2022-12-06T15:20:50.107Z,10.90
2022-12-06T15:23:31.305Z,10.80
2022-12-06T15:25:58.485Z,10.50
2022-12-06T15:28:25.516Z,10.20
2022-12-06T15:30:52.903Z,10.10
2022-12-06T15:33:24.670Z,10.10
2022-12-06T15:35:52.214Z,9.90
2022-12-06T15:38:19.272Z,9.70
2022-12-06T15:40:48.987Z,9.80
2022-12-06T15:43:26.817Z,9.80
2022-12-06T15:45:54.351Z,9.80
2022-12-06T15:48:21.630Z,9.60
2022-12-06T15:50:49.251Z,9.40
2022-12-06T15:53:21.512Z,9.30
2022-12-06T15:55:48.595Z,9.10
2022-12-06T15:58:15.821Z,9.10
2022-12-06T16:00:42.946Z,8.80
2022-12-06T16:03:10.070Z,8.70
2022-12-06T16:05:36.940Z,8.70
2022-12-06T16:08:04.283Z,8.50
2022-12-06T16:10:55.605Z,8.50
2022-12-06T16:13:21.823Z,8.40
2022-12-06T16:15:50.793Z,8.30
2022-12-06T16:18:17.811Z,8.30
2022-12-06T16:20:44.953Z,8.30
2022-12-06T16:24:10.984Z,8.50
2022-12-06T16:26:23.212Z,8.40
2022-12-06T16:28:50.021Z,8.30
2022-12-06T16:31:17.088Z,8.10
2022-12-06T16:33:44.021Z,7.90
2022-12-06T16:36:22.218Z,7.80
2022-12-06T16:38:54.394Z,7.80
2022-12-06T16:41:28.339Z,7.80
2022-12-06T16:43:56.377Z,7.90
2022-12-06T16:46:24.824Z,7.80
2022-12-06T16:49:22.210Z,7.90
2022-12-06T16:51:48.932Z,8.10
2022-12-06T16:54:17.179Z,8.30
2022-12-06T16:56:45.038Z,8.20
2022-12-06T16:59:17.374Z,8.00
2022-12-06T17:01:53.639Z,7.70
2022-12-06T17:04:21.140Z,7.50
2022-12-06T17:06:48.519Z,7.40
2022-12-06T17:09:16.329Z,7.50
2022-12-06T17:12:02.342Z,7.50
2022-12-06T17:14:30.392Z,7.70
2022-12-06T17:16:59.180Z,7.90
2022-12-06T17:19:28.431Z,8.10
2022-12-06T17:21:55.810Z,8.20
2022-12-06T17:24:25.277Z,8.00
2022-12-06T17:26:56.051Z,8.00
2022-12-06T17:29:23.823Z,8.10
2022-12-06T17:31:52.144Z,8.20
2022-12-06T17:34:20.070Z,8.00
2022-12-06T17:36:49.110Z,7.90
2022-12-06T17:39:18.985Z,8.10
2022-12-06T17:42:04.744Z,8.00
2022-12-06T17:44:31.886Z,8.10
2022-12-06T17:46:58.690Z,8.20
2022-12-06T17:49:27.061Z,8.30
2022-12-06T17:51:54.612Z,8.60
2022-12-06T17:54:21.997Z,8.70
2022-12-06T17:56:51.569Z,8.40
2022-12-06T17:59:24.345Z,8.40
2022-12-06T18:02:14.673Z,8.30
2022-12-06T18:04:38.961Z,8.40
2022-12-06T18:07:06.200Z,8.40
2022-12-06T18:09:33.137Z,8.40
2022-12-06T18:12:01.281Z,8.20
2022-12-06T18:14:28.556Z,8.20
2022-12-06T18:16:56.157Z,8.20
2022-12-06T18:19:23.195Z,8.10
2022-12-06T18:21:53.171Z,8.10
2022-12-06T18:24:23.890Z,8.10
2022-12-06T18:26:52.322Z,8.30
2022-12-06T18:29:21.598Z,8.60
2022-12-06T18:31:49.649Z,8.40
2022-12-06T18:34:17.383Z,8.10
2022-12-06T18:36:44.704Z,8.00
2022-12-06T18:39:15.817Z,8.20
2022-12-06T18:41:46.597Z,8.10
2022-12-06T18:44:14.024Z,8.20
2022-12-06T18:46:44.229Z,8.20
2022-12-06T18:49:12.192Z,8.20
2022-12-06T18:51:40.068Z,8.30
2022-12-06T18:54:08.103Z,8.20
2022-12-06T18:56:35.810Z,8.10
2022-12-06T18:59:05.217Z,8.20
2022-12-06T19:01:34.304Z,8.30
2022-12-06T19:04:03.608Z,8.30
2022-12-06T19:06:34.155Z,8.10
2022-12-06T19:09:04.057Z,8.00
2022-12-06T19:11:31.686Z,8.00
2022-12-06T19:14:01.019Z,8.00
2022-12-06T19:16:48.032Z,8.00
2022-12-06T19:19:22.061Z,7.90
2022-12-06T19:21:50.221Z,7.90
2022-12-06T19:24:21.517Z,7.80
2022-12-06T19:26:52.885Z,7.60
2022-12-06T19:29:19.832Z,7.70
2022-12-06T19:31:46.967Z,7.70
2022-12-06T19:34:25.694Z,7.70
2022-12-06T19:36:54.104Z,7.60
2022-12-06T19:39:21.700Z,7.60
2022-12-06T19:42:07.313Z,7.80
2022-12-06T19:44:34.756Z,7.80
2022-12-06T19:47:02.115Z,7.80
2022-12-06T19:49:29.250Z,7.60
2022-12-06T19:51:56.465Z,7.60
2022-12-06T19:54:29.547Z,7.40
2022-12-06T19:56:59.289Z,7.60
2022-12-06T19:59:32.248Z,7.50
2022-12-06T20:01:59.411Z,7.30
2022-12-06T20:04:33.065Z,7.30
2022-12-06T20:07:00.758Z,7.40
2022-12-06T20:09:29.766Z,7.20
2022-12-06T20:12:04.629Z,7.30
2022-12-06T20:14:49.863Z,7.40
2022-12-06T20:17:20.012Z,7.30
2022-12-06T20:19:49.025Z,7.10
2022-12-06T20:22:17.826Z,7.00
2022-12-06T20:24:45.067Z,7.10
2022-12-06T20:27:12.375Z,7.30
2022-12-06T20:29:40.296Z,7.20
2022-12-06T20:32:07.530Z,7.10
2022-12-06T20:34:35.167Z,7.20
2022-12-06T20:37:03.939Z,7.00
2022-12-06T20:39:33.025Z,7.00
2022-12-06T20:42:01.117Z,7.10
2022-12-06T20:44:28.320Z,7.20
2022-12-06T20:46:57.361Z,7.30
2022-12-06T20:49:24.657Z,7.50
2022-12-06T20:51:53.534Z,7.20
2022-12-06T20:54:21.537Z,7.20
2022-12-06T20:56:51.711Z,7.40
2022-12-06T20:59:19.515Z,7.20
2022-12-06T21:01:46.602Z,7.00
2022-12-06T21:04:14.738Z,7.00
2022-12-06T21:06:42.354Z,7.20
2022-12-06T21:09:09.641Z,7.10
2022-12-06T21:11:38.198Z,7.20
2022-12-06T21:14:06.211Z,7.30
2022-12-06T21:16:34.749Z,7.20
2022-12-06T21:19:04.925Z,7.30
2022-12-06T21:21:37.331Z,7.00
2022-12-06T21:24:07.123Z,6.80
2022-12-06T21:26:34.766Z,6.90
2022-12-06T21:29:02.290Z,6.80
2022-12-06T21:31:38.391Z,6.80
2022-12-06T21:34:05.774Z,6.90
2022-12-06T21:36:33.966Z,6.70
2022-12-06T21:39:01.319Z,6.60
2022-12-06T21:41:28.707Z,6.60
2022-12-06T21:43:55.591Z,6.70
2022-12-06T21:46:24.515Z,6.80
2022-12-06T21:48:56.666Z,6.70
2022-12-06T21:51:25.969Z,6.70
2022-12-06T21:53:53.208Z,6.80
2022-12-06T21:56:22.921Z,6.70
2022-12-06T21:58:50.132Z,6.70
2022-12-06T22:01:24.122Z,6.80
2022-12-06T22:03:53.185Z,6.80
2022-12-06T22:06:20.976Z,6.70
2022-12-06T22:08:48.958Z,6.70
2022-12-06T22:11:20.038Z,7.00
2022-12-06T22:13:48.557Z,6.70
2022-12-06T22:16:16.749Z,6.60
2022-12-06T22:18:45.979Z,6.60
2022-12-06T22:21:19.411Z,6.60
2022-12-06T22:23:47.539Z,6.70
2022-12-06T22:26:17.219Z,6.60
2022-12-06T22:28:44.760Z,6.70
2022-12-06T22:31:17.684Z,6.80
2022-12-06T22:33:45.193Z,7.00
2022-12-06T22:36:13.749Z,7.00
2022-12-06T22:38:40.760Z,7.30
2022-12-06T22:41:09.008Z,7.20
2022-12-06T22:43:36.816Z,7.00
2022-12-06T22:46:09.521Z,6.90
2022-12-06T22:48:36.976Z,6.90
2022-12-06T22:51:24.684Z,6.90
2022-12-06T22:54:04.531Z,7.00
2022-12-06T22:56:35.825Z,7.10
2022-12-06T22:59:03.193Z,7.20
2022-12-06T23:01:33.184Z,7.30
2022-12-06T23:04:03.183Z,7.20
2022-12-06T23:06:30.963Z,7.40
2022-12-06T23:08:57.886Z,7.20
2022-12-06T23:11:28.572Z,7.30
2022-12-06T23:13:56.836Z,7.30
2022-12-06T23:16:27.172Z,7.20
2022-12-06T23:18:54.725Z,7.20
2022-12-06T23:21:29.341Z,7.00
2022-12-06T23:23:59.531Z,7.00
2022-12-06T23:26:33.209Z,6.90
2022-12-06T23:29:00.615Z,6.90
2022-12-06T23:31:33.165Z,6.90
2022-12-06T23:34:04.287Z,7.10
2022-12-06T23:36:33.298Z,7.10
2022-12-06T23:39:00.871Z,7.10
2022-12-06T23:41:29.543Z,7.10
2022-12-06T23:43:57.582Z,7.00
2022-12-06T23:46:27.103Z,7.20
2022-12-06T23:48:54.561Z,7.20
2022-12-06T23:51:25.104Z,7.20
2022-12-06T23:53:59.525Z,7.20
2022-12-06T23:56:32.993Z,7.20
2022-12-06T23:59:01.317Z,7.20
